Time;durP1;ratioP1;P1;durP2;ratioP2;P2;SDS_P1;SDS_P2;PMS_P1;PMS_P2;Temp;Humidity;BMP_temperature;BMP_pressure;BME280_temperature;BME280_humidity;BME280_pressure;Samples;Min_cycle;Max_cycle;Signal;HPM_P1;HPM_P2
2023/08/20 00:01:21;;;;;;;57.30;3.10;;;;;;;;;;5051367;28;20767;-68
2023/08/20 00:03:49;;;;;;;58.17;3.50;;;;;;;;;;5051263;28;20460;-68
2023/08/20 00:06:16;;;;;;;57.40;3.50;;;;;;;;;;5051545;28;20484;-68
2023/08/20 00:08:43;;;;;;;58.40;4.30;;;;;;;;;;5051341;28;20440;-68
2023/08/20 00:11:11;;;;;;;57.60;3.83;;;;;;;;;;5051491;28;20452;-69
2023/08/20 00:13:38;;;;;;;57.70;3.27;;;;;;;;;;5051408;28;20464;-68
2023/08/20 00:16:07;;;;;;;57.60;3.90;;;;;;;;;;5051236;28;20468;-68
2023/08/20 00:18:34;;;;;;;58.23;3.20;;;;;;;;;;5051500;28;20436;-69
2023/08/20 00:21:01;;;;;;;57.77;4.50;;;;;;;;;;5051079;28;20448;-69
2023/08/20 00:23:29;;;;;;;57.40;3.60;;;;;;;;;;5050813;28;20497;-68
2023/08/20 00:25:56;;;;;;;61.00;4.10;;;;;;;;;;5050910;28;20494;-68
2023/08/20 00:28:23;;;;;;;57.30;3.77;;;;;;;;;;5050899;28;20444;-68
2023/08/20 00:30:50;;;;;;;61.80;4.07;;;;;;;;;;5051038;28;20800;-69
2023/08/20 00:33:19;;;;;;;57.87;3.30;;;;;;;;;;5050775;28;20444;-68
2023/08/20 00:35:46;;;;;;;57.67;3.50;;;;;;;;;;5050625;28;21004;-68
2023/08/20 00:38:13;;;;;;;57.00;2.70;;;;;;;;;;5050897;28;20460;-68
2023/08/20 00:40:40;;;;;;;57.47;3.80;;;;;;;;;;5050807;28;20932;-68
2023/08/20 00:43:07;;;;;;;58.70;4.00;;;;;;;;;;5050436;28;20445;-68
2023/08/20 00:45:36;;;;;;;57.60;4.33;;;;;;;;;;5050889;28;21011;-68
2023/08/20 00:48:03;;;;;;;57.10;3.10;;;;;;;;;;5050811;28;20539;-68
2023/08/20 00:50:31;;;;;;;57.27;3.10;;;;;;;;;;5050860;28;20548;-68
2023/08/20 00:52:58;;;;;;;57.67;2.90;;;;;;;;;;5050553;28;20444;-68
2023/08/20 00:55:26;;;;;;;58.13;3.77;;;;;;;;;;5050543;28;20444;-68
2023/08/20 00:57:53;;;;;;;56.60;3.13;;;;;;;;;;5050937;28;20436;-68
2023/08/20 01:00:20;;;;;;;58.37;4.10;;;;;;;;;;5050697;28;20502;-69
2023/08/20 01:02:47;;;;;;;56.57;2.53;;;;;;;;;;5050522;28;20454;-68
2023/08/20 01:05:14;;;;;;;57.03;3.10;;;;;;;;;;5050470;28;20464;-69
2023/08/20 01:07:47;;;;;;;58.60;3.37;;;;;;;;;;5050822;28;20800;-69
2023/08/20 01:10:18;;;;;;;58.17;3.90;;;;;;;;;;5050490;28;20447;-69
2023/08/20 01:12:45;;;;;;;56.90;2.70;;;;;;;;;;5050375;28;20463;-69
2023/08/20 01:15:13;;;;;;;57.87;3.57;;;;;;;;;;5050597;28;20464;-69
2023/08/20 01:17:41;;;;;;;59.63;5.07;;;;;;;;;;5050364;28;20449;-69
2023/08/20 01:20:09;;;;;;;59.33;3.70;;;;;;;;;;5050525;28;20452;-69
2023/08/20 01:22:44;;;;;;;57.20;3.13;;;;;;;;;;5050126;28;20444;-69
2023/08/20 01:25:19;;;;;;;59.43;4.90;;;;;;;;;;5050572;28;20472;-69
2023/08/20 01:27:53;;;;;;;58.33;3.63;;;;;;;;;;5050418;28;20940;-69
2023/08/20 01:30:23;;;;;;;61.00;3.10;;;;;;;;;;5050367;28;20966;-69
2023/08/20 01:32:51;;;;;;;57.27;3.20;;;;;;;;;;5050003;28;20983;-69
2023/08/20 01:35:18;;;;;;;56.87;3.17;;;;;;;;;;5050343;28;20838;-69
2023/08/20 01:37:45;;;;;;;57.07;3.00;;;;;;;;;;5050378;28;20844;-69
2023/08/20 01:40:13;;;;;;;57.20;2.80;;;;;;;;;;5050427;28;20476;-69
2023/08/20 01:42:42;;;;;;;61.70;4.73;;;;;;;;;;5050060;28;20522;-69
2023/08/20 01:45:10;;;;;;;59.50;4.30;;;;;;;;;;5048583;28;20464;-69
2023/08/20 01:47:39;;;;;;;56.87;3.07;;;;;;;;;;5050566;28;21000;-69
2023/08/20 01:50:06;;;;;;;57.70;3.53;;;;;;;;;;5053792;28;20937;-69
2023/08/20 01:52:33;;;;;;;58.13;4.13;;;;;;;;;;5053619;28;20452;-69
2023/08/20 01:55:01;;;;;;;57.30;3.27;;;;;;;;;;5053687;28;20495;-69
2023/08/20 01:57:28;;;;;;;57.20;3.30;;;;;;;;;;5053588;28;20896;-69
2023/08/20 01:59:56;;;;;;;57.60;3.23;;;;;;;;;;5054061;28;20436;-69
2023/08/20 02:02:23;;;;;;;57.30;2.73;;;;;;;;;;5053552;28;20775;-69
2023/08/20 02:04:51;;;;;;;58.60;4.77;;;;;;;;;;5053691;28;20463;-69
2023/08/20 02:07:18;;;;;;;57.70;3.60;;;;;;;;;;5053534;28;20522;-69
2023/08/20 02:09:45;;;;;;;57.40;3.20;;;;;;;;;;5053602;28;20732;-69
2023/08/20 02:12:13;;;;;;;58.30;3.67;;;;;;;;;;5053311;28;21171;-69
2023/08/20 02:14:40;;;;;;;57.13;3.50;;;;;;;;;;5053397;28;20464;-69
2023/08/20 02:17:07;;;;;;;58.67;3.87;;;;;;;;;;5053471;28;20455;-69
2023/08/20 02:19:34;;;;;;;57.53;2.97;;;;;;;;;;5053392;28;20527;-69
2023/08/20 02:22:03;;;;;;;57.90;3.70;;;;;;;;;;5053130;28;20460;-69
2023/08/20 02:24:30;;;;;;;57.10;2.67;;;;;;;;;;5053280;28;20838;-69
2023/08/20 02:26:57;;;;;;;57.27;3.10;;;;;;;;;;5053255;28;20491;-70
2023/08/20 02:29:24;;;;;;;57.37;2.93;;;;;;;;;;5053266;28;20471;-70
2023/08/20 02:31:51;;;;;;;56.73;2.80;;;;;;;;;;5052963;28;20456;-69
2023/08/20 02:34:18;;;;;;;57.17;3.53;;;;;;;;;;5053236;28;20669;-69
2023/08/20 02:36:45;;;;;;;59.00;2.73;;;;;;;;;;5052923;28;20933;-70
2023/08/20 02:39:16;;;;;;;58.47;4.13;;;;;;;;;;5052966;28;20469;-69
2023/08/20 02:41:44;;;;;;;57.60;3.63;;;;;;;;;;5052898;28;20559;-70
2023/08/20 02:44:11;;;;;;;57.00;2.63;;;;;;;;;;5052863;28;20865;-70
2023/08/20 02:46:40;;;;;;;58.17;3.57;;;;;;;;;;5052681;28;21029;-69
2023/08/20 02:49:07;;;;;;;57.17;2.90;;;;;;;;;;5052841;28;20449;-69
2023/08/20 02:51:34;;;;;;;56.87;2.70;;;;;;;;;;5052633;28;20845;-70
2023/08/20 02:54:02;;;;;;;57.77;3.40;;;;;;;;;;5052734;28;20547;-69
2023/08/20 02:56:31;;;;;;;57.87;3.30;;;;;;;;;;5052598;28;21040;-69
2023/08/20 02:58:58;;;;;;;58.00;3.57;;;;;;;;;;5052654;28;20540;-69
2023/08/20 03:01:25;;;;;;;56.70;2.80;;;;;;;;;;5052635;28;20831;-69
2023/08/20 03:03:52;;;;;;;57.10;3.03;;;;;;;;;;5052242;28;20465;-69
2023/08/20 03:06:20;;;;;;;58.97;3.50;;;;;;;;;;5052359;28;20947;-69
2023/08/20 03:08:47;;;;;;;58.23;3.10;;;;;;;;;;5052574;28;20454;-69
2023/08/20 03:11:14;;;;;;;56.57;2.73;;;;;;;;;;5052346;28;20978;-70
2023/08/20 03:13:43;;;;;;;58.27;3.73;;;;;;;;;;5052025;28;20472;-70
2023/08/20 03:16:10;;;;;;;59.57;4.10;;;;;;;;;;5052533;28;20440;-70
2023/08/20 03:18:37;;;;;;;57.20;3.50;;;;;;;;;;5052202;28;20440;-70
2023/08/20 03:21:04;;;;;;;57.70;3.23;;;;;;;;;;5052509;28;20800;-70
2023/08/20 03:23:31;;;;;;;58.07;3.37;;;;;;;;;;5051830;28;21049;-70
2023/08/20 03:25:59;;;;;;;57.90;4.00;;;;;;;;;;5052345;28;20444;-70
2023/08/20 03:28:26;;;;;;;57.27;2.90;;;;;;;;;;5052057;28;20999;-70
2023/08/20 03:30:55;;;;;;;57.30;3.17;;;;;;;;;;5052031;28;20441;-69
2023/08/20 03:33:22;;;;;;;57.70;3.50;;;;;;;;;;5051623;28;20460;-68
2023/08/20 03:35:49;;;;;;;57.20;3.03;;;;;;;;;;5051922;28;20539;-68
2023/08/20 03:38:16;;;;;;;57.97;4.27;;;;;;;;;;5051878;28;20467;-69
2023/08/20 03:40:45;;;;;;;58.50;4.00;;;;;;;;;;5051978;28;20448;-69
2023/08/20 03:43:12;;;;;;;57.87;3.67;;;;;;;;;;5051508;28;20460;-69
2023/08/20 03:45:39;;;;;;;57.83;3.80;;;;;;;;;;5051612;28;20451;-69
2023/08/20 03:48:08;;;;;;;57.60;4.10;;;;;;;;;;5051644;28;20490;-69
2023/08/20 03:50:35;;;;;;;59.37;5.30;;;;;;;;;;5051808;28;20450;-69
2023/08/20 03:53:02;;;;;;;56.90;3.10;;;;;;;;;;5051283;28;20952;-69
2023/08/20 03:55:29;;;;;;;57.33;3.60;;;;;;;;;;5051594;28;20440;-69
2023/08/20 03:57:56;;;;;;;57.53;3.20;;;;;;;;;;5051447;28;20940;-68
2023/08/20 04:00:23;;;;;;;64.20;3.50;;;;;;;;;;5051372;28;20444;-68
2023/08/20 04:02:50;;;;;;;57.77;3.33;;;;;;;;;;5051113;28;21007;-68
2023/08/20 04:05:19;;;;;;;58.23;3.00;;;;;;;;;;5051557;28;20467;-68
2023/08/20 04:07:46;;;;;;;57.07;2.80;;;;;;;;;;5051403;28;20863;-69
2023/08/20 04:10:13;;;;;;;58.47;3.73;;;;;;;;;;5051073;28;20535;-69
2023/08/20 04:12:40;;;;;;;57.37;3.23;;;;;;;;;;5051089;28;20819;-69
2023/08/20 04:15:07;;;;;;;57.70;3.83;;;;;;;;;;5051127;28;20464;-69
2023/08/20 04:17:34;;;;;;;57.87;3.30;;;;;;;;;;5051347;28;20443;-69
2023/08/20 04:20:03;;;;;;;57.57;3.50;;;;;;;;;;5051082;28;20888;-69
2023/08/20 04:22:31;;;;;;;58.90;3.53;;;;;;;;;;5050952;28;20535;-69
2023/08/20 04:24:58;;;;;;;60.40;4.10;;;;;;;;;;5051102;28;20465;-69
2023/08/20 04:27:25;;;;;;;58.30;3.70;;;;;;;;;;5050715;28;21122;-68
2023/08/20 04:29:52;;;;;;;58.43;3.50;;;;;;;;;;5051266;28;20451;-68
2023/08/20 04:32:19;;;;;;;58.13;3.50;;;;;;;;;;5050596;28;20454;-68
2023/08/20 04:34:49;;;;;;;57.50;3.00;;;;;;;;;;5050980;28;20468;-68
2023/08/20 04:37:16;;;;;;;57.73;3.20;;;;;;;;;;5050792;28;20805;-68
2023/08/20 04:39:44;;;;;;;57.60;3.83;;;;;;;;;;5050933;28;20454;-69
2023/08/20 04:42:11;;;;;;;56.67;2.80;;;;;;;;;;5051017;28;20827;-69
2023/08/20 04:44:39;;;;;;;58.00;4.00;;;;;;;;;;5050766;28;20464;-69
2023/08/20 04:47:06;;;;;;;59.43;3.63;;;;;;;;;;5050870;28;20932;-69
2023/08/20 04:49:33;;;;;;;59.10;4.40;;;;;;;;;;5050730;28;20948;-69
2023/08/20 04:52:00;;;;;;;57.93;3.40;;;;;;;;;;5050615;28;20450;-69
2023/08/20 04:54:27;;;;;;;57.30;3.60;;;;;;;;;;5050659;28;20460;-69
2023/08/20 04:56:56;;;;;;;57.67;3.73;;;;;;;;;;5050527;28;20950;-69
2023/08/20 04:59:23;;;;;;;59.47;4.30;;;;;;;;;;5050817;28;20450;-69
2023/08/20 05:01:50;;;;;;;57.00;2.70;;;;;;;;;;5050435;28;20448;-69
2023/08/20 05:04:17;;;;;;;56.77;2.80;;;;;;;;;;5050683;28;20468;-69
2023/08/20 05:06:44;;;;;;;57.27;3.23;;;;;;;;;;5050688;28;20487;-69
2023/08/20 05:09:12;;;;;;;57.80;3.90;;;;;;;;;;5050461;28;20448;-69
2023/08/20 05:11:39;;;;;;;58.50;4.47;;;;;;;;;;5050315;28;20458;-69
2023/08/20 05:14:07;;;;;;;57.20;2.87;;;;;;;;;;5050661;28;20472;-69
2023/08/20 05:16:34;;;;;;;57.53;3.43;;;;;;;;;;5050444;28;20970;-69
2023/08/20 05:19:01;;;;;;;57.67;4.30;;;;;;;;;;5051127;28;20444;-69
2023/08/20 05:21:28;;;;;;;57.17;2.83;;;;;;;;;;5050396;28;20451;-69
2023/08/20 05:23:56;;;;;;;57.90;3.53;;;;;;;;;;5052778;28;20467;-68
2023/08/20 05:26:23;;;;;;;57.10;3.20;;;;;;;;;;5054335;28;20554;-68
2023/08/20 05:28:50;;;;;;;60.87;3.67;;;;;;;;;;5054630;28;20442;-68
2023/08/20 05:31:19;;;;;;;57.73;3.63;;;;;;;;;;5054243;28;21016;-68
2023/08/20 05:33:46;;;;;;;57.77;3.23;;;;;;;;;;5053927;28;20464;-69
2023/08/20 05:36:13;;;;;;;57.50;3.33;;;;;;;;;;5053994;28;20514;-68
2023/08/20 05:38:42;;;;;;;57.33;3.10;;;;;;;;;;5054325;28;20543;-69
2023/08/20 05:41:09;;;;;;;58.37;4.20;;;;;;;;;;5054215;28;20488;-69
2023/08/20 05:43:37;;;;;;;57.40;3.63;;;;;;;;;;5053813;28;20544;-69
2023/08/20 05:46:04;;;;;;;56.73;2.70;;;;;;;;;;5054043;28;20878;-68
2023/08/20 05:48:32;;;;;;;58.07;4.20;;;;;;;;;;5053902;28;20484;-69
2023/08/20 05:50:59;;;;;;;57.30;3.37;;;;;;;;;;5053822;28;20959;-69
2023/08/20 05:53:26;;;;;;;57.90;3.07;;;;;;;;;;5053561;28;20975;-68
2023/08/20 05:55:53;;;;;;;59.00;4.87;;;;;;;;;;5053800;28;20478;-69
2023/08/20 05:58:20;;;;;;;57.40;3.00;;;;;;;;;;5053863;28;20436;-69
2023/08/20 06:00:48;;;;;;;56.90;3.20;;;;;;;;;;5053898;28;20444;-68
2023/08/20 06:03:15;;;;;;;57.23;3.63;;;;;;;;;;5053311;28;20547;-69
2023/08/20 06:05:43;;;;;;;56.97;3.20;;;;;;;;;;5053974;28;20447;-69
2023/08/20 06:08:10;;;;;;;57.60;3.30;;;;;;;;;;5053663;28;20486;-69
2023/08/20 06:10:38;;;;;;;57.70;3.43;;;;;;;;;;5053585;28;20444;-68
2023/08/20 06:13:05;;;;;;;56.73;2.93;;;;;;;;;;5053466;28;20448;-68
2023/08/20 06:15:32;;;;;;;57.40;3.40;;;;;;;;;;5053340;28;20923;-68
2023/08/20 06:17:59;;;;;;;56.90;3.17;;;;;;;;;;5053263;28;20436;-68
2023/08/20 06:20:26;;;;;;;58.37;3.50;;;;;;;;;;5053537;28;20450;-68
2023/08/20 06:22:55;;;;;;;56.90;2.90;;;;;;;;;;5053100;28;20936;-68
2023/08/20 06:25:22;;;;;;;57.17;2.90;;;;;;;;;;5053425;28;20474;-68
2023/08/20 06:27:49;;;;;;;58.63;5.20;;;;;;;;;;5053141;28;21034;-69
2023/08/20 06:30:16;;;;;;;56.87;2.83;;;;;;;;;;5053137;28;20470;-66
2023/08/20 06:32:43;;;;;;;59.00;3.67;;;;;;;;;;5053019;28;20444;-69
2023/08/20 06:35:11;;;;;;;58.20;3.73;;;;;;;;;;5052794;28;20472;-69
2023/08/20 06:37:38;;;;;;;57.20;3.50;;;;;;;;;;5053192;28;20491;-67
2023/08/20 06:40:07;;;;;;;56.73;2.80;;;;;;;;;;5053031;28;20815;-67
2023/08/20 06:42:34;;;;;;;57.00;2.93;;;;;;;;;;5052637;28;20454;-67
2023/08/20 06:45:01;;;;;;;57.00;2.93;;;;;;;;;;5052658;28;20855;-67
2023/08/20 06:47:28;;;;;;;58.30;3.57;;;;;;;;;;5052935;28;20484;-68
2023/08/20 06:49:55;;;;;;;57.27;4.23;;;;;;;;;;5052954;28;20819;-67
2023/08/20 06:52:22;;;;;;;57.20;2.60;;;;;;;;;;5052569;28;20452;-68
2023/08/20 06:54:50;;;;;;;57.47;3.23;;;;;;;;;;5052527;28;20466;-69
2023/08/20 06:57:18;;;;;;;58.43;3.80;;;;;;;;;;5052549;28;20475;-69
2023/08/20 06:59:45;;;;;;;57.37;2.87;;;;;;;;;;5052407;28;20480;-69
2023/08/20 07:02:12;;;;;;;59.87;3.87;;;;;;;;;;5052386;28;20504;-69
2023/08/20 07:04:39;;;;;;;57.97;3.60;;;;;;;;;;5052442;28;20466;-68
2023/08/20 07:07:07;;;;;;;56.90;2.50;;;;;;;;;;5052383;28;20535;-69
2023/08/20 07:09:35;;;;;;;57.97;3.90;;;;;;;;;;5052378;28;20483;-69
2023/08/20 07:12:02;;;;;;;57.57;3.43;;;;;;;;;;5051940;28;20463;-69
2023/08/20 07:14:31;;;;;;;57.50;3.70;;;;;;;;;;5052425;28;20511;-69
2023/08/20 07:16:59;;;;;;;57.67;3.20;;;;;;;;;;5052066;28;20954;-69
2023/08/20 07:19:26;;;;;;;57.40;3.60;;;;;;;;;;5052154;28;20464;-68
2023/08/20 07:21:53;;;;;;;57.77;3.70;;;;;;;;;;5051979;28;20470;-69
2023/08/20 07:24:25;;;;;;;59.37;4.40;;;;;;;;;;5052101;28;20840;-69
2023/08/20 07:26:52;;;;;;;58.40;3.60;;;;;;;;;;5052197;28;20441;-68
2023/08/20 07:29:19;;;;;;;58.20;3.47;;;;;;;;;;5052169;28;20498;-69
2023/08/20 07:31:47;;;;;;;57.30;4.33;;;;;;;;;;5051700;28;20436;-69
2023/08/20 07:34:15;;;;;;;57.47;2.80;;;;;;;;;;5051783;28;20550;-68
2023/08/20 07:36:42;;;;;;;59.10;4.10;;;;;;;;;;5051727;28;20990;-69
2023/08/20 07:39:09;;;;;;;57.97;3.13;;;;;;;;;;5051724;28;20440;-69
2023/08/20 07:41:36;;;;;;;60.90;5.87;;;;;;;;;;5051565;28;20443;-70
2023/08/20 07:44:04;;;;;;;56.90;2.90;;;;;;;;;;5051779;28;20837;-69
2023/08/20 07:46:31;;;;;;;57.57;3.30;;;;;;;;;;5051014;28;20444;-69
2023/08/20 07:48:59;;;;;;;57.70;3.33;;;;;;;;;;5051589;28;20490;-70
2023/08/20 07:51:26;;;;;;;57.17;3.10;;;;;;;;;;5051837;28;20463;-70
2023/08/20 07:53:53;;;;;;;56.70;3.30;;;;;;;;;;5051091;28;20476;-70
2023/08/20 07:56:20;;;;;;;56.97;3.17;;;;;;;;;;5051657;28;20824;-69
2023/08/20 07:58:48;;;;;;;57.03;3.27;;;;;;;;;;5051639;28;20440;-69
2023/08/20 08:01:16;;;;;;;56.53;2.90;;;;;;;;;;5051612;28;20483;-69
2023/08/20 08:03:43;;;;;;;57.90;3.13;;;;;;;;;;5051213;28;20468;-69
2023/08/20 08:06:12;;;;;;;57.03;2.73;;;;;;;;;;5051169;28;20446;-69
2023/08/20 08:08:39;;;;;;;57.67;3.60;;;;;;;;;;5051295;28;20511;-69
2023/08/20 08:11:06;;;;;;;58.47;4.00;;;;;;;;;;5051565;28;20535;-70
2023/08/20 08:13:33;;;;;;;57.50;3.20;;;;;;;;;;5050966;28;20464;-67
2023/08/20 08:16:00;;;;;;;58.00;4.03;;;;;;;;;;5050975;28;20936;-68
2023/08/20 08:18:28;;;;;;;57.70;3.27;;;;;;;;;;5051169;28;20451;-68
2023/08/20 08:20:55;;;;;;;57.30;3.23;;;;;;;;;;5051238;28;20448;-68
2023/08/20 08:23:23;;;;;;;57.57;3.17;;;;;;;;;;5050829;28;20469;-69
2023/08/20 08:25:50;;;;;;;56.80;2.73;;;;;;;;;;5051134;28;20448;-69
2023/08/20 08:28:17;;;;;;;57.37;2.90;;;;;;;;;;5051057;28;20495;-69
2023/08/20 08:30:45;;;;;;;57.20;3.00;;;;;;;;;;5051027;28;20448;-69
2023/08/20 08:33:12;;;;;;;58.27;4.13;;;;;;;;;;5050612;28;20444;-69
2023/08/20 08:35:39;;;;;;;58.23;4.30;;;;;;;;;;5050787;28;20497;-69
2023/08/20 08:38:06;;;;;;;57.57;3.00;;;;;;;;;;5050813;28;20456;-69
2023/08/20 08:40:34;;;;;;;57.40;3.70;;;;;;;;;;5050975;28;20831;-68
2023/08/20 08:43:02;;;;;;;57.27;3.63;;;;;;;;;;5050582;28;20440;-69
2023/08/20 08:45:29;;;;;;;59.23;3.40;;;;;;;;;;5050847;28;20437;-69
2023/08/20 08:47:56;;;;;;;59.17;3.80;;;;;;;;;;5050423;28;20480;-69
2023/08/20 08:50:23;;;;;;;58.10;4.23;;;;;;;;;;5050874;28;20448;-68
2023/08/20 08:52:52;;;;;;;56.57;3.70;;;;;;;;;;5050625;28;20440;-68
2023/08/20 08:55:19;;;;;;;60.67;4.87;;;;;;;;;;5050649;28;20464;-69
2023/08/20 08:57:48;;;;;;;56.73;2.77;;;;;;;;;;5053241;28;20470;-68
2023/08/20 09:00:15;;;;;;;57.87;3.27;;;;;;;;;;5054674;28;20436;-69
2023/08/20 09:02:42;;;;;;;57.37;3.17;;;;;;;;;;5054377;28;20958;-69
2023/08/20 09:05:09;;;;;;;56.77;3.13;;;;;;;;;;5054804;28;20467;-69
2023/08/20 09:07:37;;;;;;;56.83;2.63;;;;;;;;;;5054757;28;20519;-68
2023/08/20 09:10:04;;;;;;;57.40;3.13;;;;;;;;;;5054612;28;20535;-68
2023/08/20 09:12:35;;;;;;;56.93;2.80;;;;;;;;;;5054333;28;20452;-68
2023/08/20 09:15:04;;;;;;;57.30;3.50;;;;;;;;;;5054322;28;20471;-69
2023/08/20 09:17:31;;;;;;;56.70;2.60;;;;;;;;;;5054520;28;20443;-69
2023/08/20 09:19:58;;;;;;;57.07;3.43;;;;;;;;;;5054652;28;20490;-69
2023/08/20 09:22:25;;;;;;;57.80;3.77;;;;;;;;;;5054144;28;20444;-69
2023/08/20 09:24:56;;;;;;;58.50;3.67;;;;;;;;;;5054228;28;20464;-69
2023/08/20 09:27:23;;;;;;;57.30;3.10;;;;;;;;;;5054153;28;20437;-69
2023/08/20 09:29:51;;;;;;;56.90;3.60;;;;;;;;;;5054303;28;20487;-69
2023/08/20 09:32:20;;;;;;;57.47;3.40;;;;;;;;;;5054045;28;20543;-69
2023/08/20 09:34:49;;;;;;;56.50;2.40;;;;;;;;;;5054121;28;20467;-70
2023/08/20 09:37:16;;;;;;;57.20;2.70;;;;;;;;;;5053946;28;20570;-69
2023/08/20 09:39:43;;;;;;;56.83;2.70;;;;;;;;;;5054058;28;20804;-69
2023/08/20 09:42:11;;;;;;;59.20;4.10;;;;;;;;;;5053552;28;20520;-69
2023/08/20 09:44:39;;;;;;;57.07;3.50;;;;;;;;;;5054010;28;20846;-69
2023/08/20 09:47:08;;;;;;;56.60;3.03;;;;;;;;;;5053998;28;20450;-69
2023/08/20 09:49:39;;;;;;;57.30;3.00;;;;;;;;;;5053833;28;20488;-69
2023/08/20 09:52:07;;;;;;;58.60;3.90;;;;;;;;;;5053547;28;20787;-70
2023/08/20 09:54:41;;;;;;;57.07;3.13;;;;;;;;;;5053494;28;20471;-69
2023/08/20 09:57:11;;;;;;;57.27;3.97;;;;;;;;;;5053803;28;20444;-70
2023/08/20 09:59:40;;;;;;;56.40;3.07;;;;;;;;;;5053806;28;20540;-69
2023/08/20 10:02:09;;;;;;;57.37;4.00;;;;;;;;;;5053569;28;20448;-70
2023/08/20 10:04:37;;;;;;;56.77;2.53;;;;;;;;;;5053853;28;20498;-70
2023/08/20 10:07:04;;;;;;;57.27;3.50;;;;;;;;;;5053313;28;20456;-70
2023/08/20 10:09:32;;;;;;;56.67;2.57;;;;;;;;;;5052514;28;20484;-69
2023/08/20 10:12:01;;;;;;;58.23;3.97;;;;;;;;;;5053472;28;20451;-69
2023/08/20 10:14:28;;;;;;;56.43;2.53;;;;;;;;;;5053334;28;20460;-69
2023/08/20 10:16:55;;;;;;;56.70;2.80;;;;;;;;;;5053287;28;20444;-69
2023/08/20 10:19:22;;;;;;;56.60;2.70;;;;;;;;;;5053071;28;20452;-69
2023/08/20 10:21:53;;;;;;;56.60;3.10;;;;;;;;;;5052828;28;20447;-69
2023/08/20 10:24:20;;;;;;;56.30;3.00;;;;;;;;;;5053251;28;20812;-69
2023/08/20 10:26:48;;;;;;;56.53;2.87;;;;;;;;;;5053121;28;20451;-69
2023/08/20 10:29:34;;;;;;;55.70;2.70;;;;;;;;;;5052950;28;20483;-70
2023/08/20 10:32:01;;;;;;;56.00;3.10;;;;;;;;;;5052639;28;20953;-70
2023/08/20 10:34:35;;;;;;;56.87;3.27;;;;;;;;;;5052797;28;21012;-70
2023/08/20 10:37:04;;;;;;;58.17;3.47;;;;;;;;;;5052915;28;20833;-70
2023/08/20 10:39:32;;;;;;;55.70;2.97;;;;;;;;;;5052979;28;20446;-70
2023/08/20 10:42:23;;;;;;;55.40;2.83;;;;;;;;;;5052531;28;20845;-70
2023/08/20 10:45:04;;;;;;;55.83;3.27;;;;;;;;;;5052922;28;20466;-70
2023/08/20 10:47:38;;;;;;;55.50;2.40;;;;;;;;;;5052761;28;20444;-70
2023/08/20 10:50:06;;;;;;;55.80;2.83;;;;;;;;;;5052666;28;20499;-70
2023/08/20 10:52:39;;;;;;;55.87;2.60;;;;;;;;;;5052802;28;20456;-70
2023/08/20 10:55:08;;;;;;;55.30;3.07;;;;;;;;;;5052484;28;20942;-70
2023/08/20 10:57:36;;;;;;;55.80;3.10;;;;;;;;;;5052413;28;20773;-70
2023/08/20 11:00:09;;;;;;;55.40;3.37;;;;;;;;;;5052495;28;20440;-70
2023/08/20 11:02:37;;;;;;;54.67;2.30;;;;;;;;;;5052277;28;20444;-70
2023/08/20 11:05:04;;;;;;;54.90;2.47;;;;;;;;;;5052437;28;20991;-70
2023/08/20 11:07:34;;;;;;;55.77;2.80;;;;;;;;;;5052410;28;20448;-70
2023/08/20 11:10:03;;;;;;;55.40;3.40;;;;;;;;;;5052211;28;20491;-69
2023/08/20 11:12:31;;;;;;;56.43;3.57;;;;;;;;;;5052151;28;20531;-70
2023/08/20 11:15:02;;;;;;;54.67;2.47;;;;;;;;;;5052197;28;20467;-69
2023/08/20 11:17:29;;;;;;;55.50;2.90;;;;;;;;;;5052131;28;20455;-69
2023/08/20 11:19:57;;;;;;;54.87;2.47;;;;;;;;;;5051334;28;20441;-70
2023/08/20 11:22:24;;;;;;;55.90;3.77;;;;;;;;;;5051684;28;20448;-69
2023/08/20 11:24:51;;;;;;;54.90;2.63;;;;;;;;;;5052090;28;20474;-69
2023/08/20 11:27:20;;;;;;;56.10;3.43;;;;;;;;;;5052068;28;20441;-71
2023/08/20 11:29:47;;;;;;;55.47;2.97;;;;;;;;;;5051928;28;20491;-70
2023/08/20 11:32:14;;;;;;;55.00;3.27;;;;;;;;;;5051657;28;20506;-70
2023/08/20 11:34:41;;;;;;;55.93;2.73;;;;;;;;;;5051646;28;20818;-68
2023/08/20 11:37:08;;;;;;;55.07;3.47;;;;;;;;;;5051596;28;20483;-69
2023/08/20 11:39:37;;;;;;;54.80;2.97;;;;;;;;;;5051812;28;20954;-69
2023/08/20 11:42:06;;;;;;;53.97;2.70;;;;;;;;;;5051558;28;20467;-70
2023/08/20 11:44:44;;;;;;;59.37;3.50;;;;;;;;;;5051755;28;20979;-69
2023/08/20 11:47:14;;;;;;;54.77;2.80;;;;;;;;;;5051386;28;20448;-70
2023/08/20 11:49:41;;;;;;;55.27;3.63;;;;;;;;;;5051792;28;20464;-70
2023/08/20 11:52:09;;;;;;;55.40;3.53;;;;;;;;;;5051383;28;20459;-70
2023/08/20 11:54:36;;;;;;;54.57;2.93;;;;;;;;;;5051379;28;20508;-69
2023/08/20 11:57:04;;;;;;;54.67;2.80;;;;;;;;;;5051485;28;20437;-69
2023/08/20 11:59:31;;;;;;;54.37;3.20;;;;;;;;;;5051204;28;20488;-69
2023/08/20 12:02:00;;;;;;;54.60;2.67;;;;;;;;;;5051253;28;20448;-70
2023/08/20 12:04:30;;;;;;;56.37;3.40;;;;;;;;;;5051437;28;20456;-70
2023/08/20 12:07:05;;;;;;;54.40;2.63;;;;;;;;;;5051227;28;20448;-70
2023/08/20 12:09:32;;;;;;;54.27;3.10;;;;;;;;;;5051085;28;20948;-70
2023/08/20 12:12:00;;;;;;;53.80;2.60;;;;;;;;;;5050857;28;20951;-70
2023/08/20 12:14:27;;;;;;;54.40;2.93;;;;;;;;;;5051011;28;20499;-70
2023/08/20 12:16:55;;;;;;;55.70;3.30;;;;;;;;;;5051370;28;20454;-70
2023/08/20 12:19:24;;;;;;;54.53;2.73;;;;;;;;;;5050956;28;21064;-70
2023/08/20 12:21:51;;;;;;;53.77;2.77;;;;;;;;;;5050871;28;20444;-70
2023/08/20 12:24:20;;;;;;;54.30;3.00;;;;;;;;;;5050868;28;20500;-71
2023/08/20 12:26:47;;;;;;;53.87;2.87;;;;;;;;;;5050804;28;20448;-70
2023/08/20 12:29:14;;;;;;;54.50;2.60;;;;;;;;;;5051127;28;20437;-71
2023/08/20 12:31:42;;;;;;;54.17;3.00;;;;;;;;;;5050154;28;20828;-70
2023/08/20 12:34:09;;;;;;;54.40;2.80;;;;;;;;;;5051017;28;20514;-70
2023/08/20 12:36:38;;;;;;;53.90;2.90;;;;;;;;;;5050608;28;20448;-71
2023/08/20 12:39:05;;;;;;;53.67;2.80;;;;;;;;;;5050638;28;20512;-69
2023/08/20 12:41:32;;;;;;;54.40;2.77;;;;;;;;;;5050638;28;20875;-70
2023/08/20 12:43:59;;;;;;;54.90;3.40;;;;;;;;;;5050677;28;20655;-69
2023/08/20 12:46:26;;;;;;;54.53;2.60;;;;;;;;;;5050720;28;20437;-70
2023/08/20 12:48:54;;;;;;;55.00;3.60;;;;;;;;;;5050807;28;20822;-70
2023/08/20 12:51:21;;;;;;;54.40;3.07;;;;;;;;;;5050747;28;20442;-71
2023/08/20 12:53:49;;;;;;;54.50;2.63;;;;;;;;;;5050594;28;20839;-70
2023/08/20 12:56:17;;;;;;;53.70;2.57;;;;;;;;;;5050779;28;20845;-70
2023/08/20 12:58:44;;;;;;;54.07;2.50;;;;;;;;;;5050592;28;20579;-71
2023/08/20 13:01:11;;;;;;;54.47;3.53;;;;;;;;;;5050762;28;20875;-70
2023/08/20 13:03:39;;;;;;;54.20;3.40;;;;;;;;;;5050190;28;20980;-70
2023/08/20 13:06:06;;;;;;;54.40;2.73;;;;;;;;;;5050379;28;20455;-70
2023/08/20 13:08:34;;;;;;;55.90;2.60;;;;;;;;;;5050772;28;20476;-69
2023/08/20 13:11:03;;;;;;;55.00;3.03;;;;;;;;;;5050443;28;20951;-70
2023/08/20 13:13:33;;;;;;;55.10;3.27;;;;;;;;;;5050364;28;20465;-70
2023/08/20 13:16:02;;;;;;;60.40;4.40;;;;;;;;;;5050418;28;20444;-70
2023/08/20 13:18:29;;;;;;;54.60;3.07;;;;;;;;;;5050469;28;20948;-70
2023/08/20 13:20:56;;;;;;;54.70;3.10;;;;;;;;;;5050346;28;20516;-70
2023/08/20 13:23:24;;;;;;;54.00;2.83;;;;;;;;;;5050316;28;20490;-70
2023/08/20 13:25:51;;;;;;;54.67;2.87;;;;;;;;;;5050433;28;20445;-70
2023/08/20 13:28:20;;;;;;;54.63;2.90;;;;;;;;;;5050491;28;20534;-70
2023/08/20 13:30:47;;;;;;;54.27;3.30;;;;;;;;;;5050352;28;20444;-70
2023/08/20 13:33:14;;;;;;;54.10;2.63;;;;;;;;;;5050006;28;20450;-69
2023/08/20 13:35:42;;;;;;;54.67;3.00;;;;;;;;;;5050369;28;20460;-70
2023/08/20 13:38:09;;;;;;;54.23;2.80;;;;;;;;;;5050204;28;20460;-70
2023/08/20 13:40:36;;;;;;;54.60;2.63;;;;;;;;;;5050283;28;20494;-70
2023/08/20 13:43:03;;;;;;;54.07;2.90;;;;;;;;;;5049933;28;20448;-69
2023/08/20 13:45:31;;;;;;;53.17;2.20;;;;;;;;;;5053391;28;20467;-70
2023/08/20 13:47:58;;;;;;;54.30;2.67;;;;;;;;;;5053733;28;20448;-69
2023/08/20 13:50:26;;;;;;;54.57;3.53;;;;;;;;;;5053848;28;20447;-70
2023/08/20 13:52:53;;;;;;;53.57;2.47;;;;;;;;;;5053746;28;20818;-70
2023/08/20 13:55:21;;;;;;;54.30;2.80;;;;;;;;;;5053710;28;20466;-70
2023/08/20 13:57:48;;;;;;;53.50;2.47;;;;;;;;;;5053762;28;20445;-70
2023/08/20 14:00:15;;;;;;;54.07;2.60;;;;;;;;;;5053878;28;20480;-69
2023/08/20 14:02:44;;;;;;;53.87;2.70;;;;;;;;;;5053945;28;20436;-70
2023/08/20 14:05:11;;;;;;;54.20;2.93;;;;;;;;;;5053568;28;20471;-69
2023/08/20 14:07:38;;;;;;;55.13;3.20;;;;;;;;;;5053696;28;20450;-70
2023/08/20 14:10:05;;;;;;;54.00;2.37;;;;;;;;;;5053557;28;20533;-69
2023/08/20 14:12:33;;;;;;;54.90;3.27;;;;;;;;;;5053380;28;20445;-69
2023/08/20 14:15:00;;;;;;;53.93;2.23;;;;;;;;;;5053107;28;20837;-69
2023/08/20 14:17:27;;;;;;;54.10;3.10;;;;;;;;;;5053130;28;20970;-70
2023/08/20 14:19:56;;;;;;;53.97;2.20;;;;;;;;;;5053435;28;20492;-69
2023/08/20 14:22:23;;;;;;;56.40;2.80;;;;;;;;;;5053064;28;20462;-69
2023/08/20 14:24:50;;;;;;;54.57;2.93;;;;;;;;;;5053101;28;20464;-69
2023/08/20 14:27:17;;;;;;;55.27;3.00;;;;;;;;;;5053009;28;20959;-70
2023/08/20 14:29:44;;;;;;;54.30;3.13;;;;;;;;;;5052997;28;20440;-69
2023/08/20 14:32:11;;;;;;;54.17;2.83;;;;;;;;;;5052845;28;20440;-70
2023/08/20 14:34:38;;;;;;;54.10;3.07;;;;;;;;;;5053059;28;20468;-69